sensor_id;sensor_type;location;lat;lon;timestamp;pressure;altitude;pressure_sealevel;temperature;humidity
42169;BME280;27838;43.858;25.974;2022-09-20T00:01:26;100977.41;;;16.98;52.06
42169;BME280;27838;43.858;25.974;2022-09-20T00:03:55;100987.19;;;16.92;52.16
42169;BME280;27838;43.858;25.974;2022-09-20T00:06:25;100994.31;;;16.87;52.47
42169;BME280;27838;43.858;25.974;2022-09-20T00:08:52;100992.50;;;16.89;52.50
42169;BME280;27838;43.858;25.974;2022-09-20T00:11:23;100994.94;;;16.98;52.12
42169;BME280;27838;43.858;25.974;2022-09-20T00:13:52;100994.03;;;16.99;52.16
42169;BME280;27838;43.858;25.974;2022-09-20T00:16:23;101000.16;;;16.99;52.14
42169;BME280;27838;43.858;25.974;2022-09-20T00:18:52;100994.94;;;16.98;52.25
42169;BME280;27838;43.858;25.974;2022-09-20T00:21:22;100991.53;;;16.93;52.34
42169;BME280;27838;43.858;25.974;2022-09-20T00:23:50;100988.22;;;16.85;52.45
42169;BME280;27838;43.858;25.974;2022-09-20T00:26:17;100992.47;;;16.92;52.23
42169;BME280;27838;43.858;25.974;2022-09-20T00:28:45;100990.78;;;16.88;52.23
42169;BME280;27838;43.858;25.974;2022-09-20T00:31:13;100983.72;;;16.90;51.90
42169;BME280;27838;43.858;25.974;2022-09-20T00:33:39;100979.28;;;16.92;52.16
42169;BME280;27838;43.858;25.974;2022-09-20T00:36:24;100973.25;;;16.87;52.07
42169;BME280;27838;43.858;25.974;2022-09-20T00:38:59;100985.38;;;16.94;52.07
42169;BME280;27838;43.858;25.974;2022-09-20T00:41:27;100982.16;;;16.79;52.51
42169;BME280;27838;43.858;25.974;2022-09-20T00:43:54;100984.13;;;16.68;52.75
42169;BME280;27838;43.858;25.974;2022-09-20T00:46:28;100975.63;;;16.57;52.78
42169;BME280;27838;43.858;25.974;2022-09-20T00:49:04;100984.50;;;16.51;52.99
42169;BME280;27838;43.858;25.974;2022-09-20T00:51:34;100982.78;;;16.49;53.18
42169;BME280;27838;43.858;25.974;2022-09-20T00:54:04;100990.69;;;16.49;53.34
42169;BME280;27838;43.858;25.974;2022-09-20T00:56:36;100983.78;;;16.43;53.60
42169;BME280;27838;43.858;25.974;2022-09-20T00:59:14;100979.44;;;16.40;53.42
42169;BME280;27838;43.858;25.974;2022-09-20T01:01:43;100972.53;;;16.35;53.45
42169;BME280;27838;43.858;25.974;2022-09-20T01:04:12;100981.38;;;16.32;53.62
42169;BME280;27838;43.858;25.974;2022-09-20T01:06:42;100974.34;;;16.33;53.83
42169;BME280;27838;43.858;25.974;2022-09-20T01:09:10;100968.91;;;16.40;53.33
42169;BME280;27838;43.858;25.974;2022-09-20T01:11:37;100967.22;;;16.39;53.07
42169;BME280;27838;43.858;25.974;2022-09-20T01:14:04;100961.13;;;16.36;53.33
42169;BME280;27838;43.858;25.974;2022-09-20T01:16:31;100961.16;;;16.34;53.51
42169;BME280;27838;43.858;25.974;2022-09-20T01:19:02;100955.94;;;16.33;53.86
42169;BME280;27838;43.858;25.974;2022-09-20T01:21:33;100950.75;;;16.28;53.56
42169;BME280;27838;43.858;25.974;2022-09-20T01:24:23;100948.94;;;16.30;53.60
42169;BME280;27838;43.858;25.974;2022-09-20T01:27:12;100953.34;;;16.31;53.28
42169;BME280;27838;43.858;25.974;2022-09-20T01:32:23;100950.06;;;16.20;53.61
42169;BME280;27838;43.858;25.974;2022-09-20T01:34:59;100944.81;;;16.20;53.89
42169;BME280;27838;43.858;25.974;2022-09-20T01:37:30;100952.72;;;16.18;54.05
42169;BME280;27838;43.858;25.974;2022-09-20T01:42:49;100957.94;;;16.20;54.04
42169;BME280;27838;43.858;25.974;2022-09-20T01:45:21;100959.66;;;16.21;53.51
42169;BME280;27838;43.858;25.974;2022-09-20T01:47:58;100962.19;;;16.27;53.71
42169;BME280;27838;43.858;25.974;2022-09-20T02:02:08;100958.91;;;16.14;53.76
42169;BME280;27838;43.858;25.974;2022-09-20T02:11:17;100958.84;;;16.19;53.84
42169;BME280;27838;43.858;25.974;2022-09-20T02:14:19;100958.66;;;16.28;53.57
42169;BME280;27838;43.858;25.974;2022-09-20T02:17:21;100960.41;;;16.28;53.32
42169;BME280;27838;43.858;25.974;2022-09-20T02:20:06;100969.25;;;16.25;53.26
42169;BME280;27838;43.858;25.974;2022-09-20T02:22:52;100969.13;;;16.31;53.07
42169;BME280;27838;43.858;25.974;2022-09-20T02:31:11;100972.63;;;16.30;53.00
42169;BME280;27838;43.858;25.974;2022-09-20T02:36:40;100978.91;;;16.23;53.28
42169;BME280;27838;43.858;25.974;2022-09-20T02:42:12;100975.72;;;16.07;53.19
42169;BME280;27838;43.858;25.974;2022-09-20T02:45:06;100971.44;;;16.01;53.71
42169;BME280;27838;43.858;25.974;2022-09-20T02:47:41;100974.81;;;16.10;53.81
42169;BME280;27838;43.858;25.974;2022-09-20T03:04:32;100993.50;;;15.93;53.15
42169;BME280;27838;43.858;25.974;2022-09-20T03:07:25;100983.97;;;15.87;53.45
42169;BME280;27838;43.858;25.974;2022-09-20T03:10:24;100982.41;;;15.77;53.94
42169;BME280;27838;43.858;25.974;2022-09-20T03:13:17;100985.22;;;15.63;54.37
42169;BME280;27838;43.858;25.974;2022-09-20T03:16:11;100981.88;;;15.53;54.24
42169;BME280;27838;43.858;25.974;2022-09-20T03:21:55;100990.41;;;15.67;54.16
42169;BME280;27838;43.858;25.974;2022-09-20T03:24:40;100986.00;;;15.70;53.98
42169;BME280;27838;43.858;25.974;2022-09-20T03:27:20;100992.25;;;15.62;54.19
42169;BME280;27838;43.858;25.974;2022-09-20T03:41:03;100984.66;;;15.44;54.65
42169;BME280;27838;43.858;25.974;2022-09-20T03:46:17;100990.84;;;15.41;54.65
42169;BME280;27838;43.858;25.974;2022-09-20T03:54:22;100994.28;;;15.45;54.04
42169;BME280;27838;43.858;25.974;2022-09-20T04:00:37;100999.56;;;15.43;54.25
42169;BME280;27838;43.858;25.974;2022-09-20T04:03:24;101000.25;;;15.53;53.87
42169;BME280;27838;43.858;25.974;2022-09-20T04:06:16;100990.75;;;15.44;54.21
42169;BME280;27838;43.858;25.974;2022-09-20T04:11:43;101003.88;;;15.46;54.33
42169;BME280;27838;43.858;25.974;2022-09-20T04:14:22;101011.72;;;15.49;53.94
42169;BME280;27838;43.858;25.974;2022-09-20T04:16:59;101008.19;;;15.52;54.31
42169;BME280;27838;43.858;25.974;2022-09-20T04:19:38;101006.44;;;15.52;53.62
42169;BME280;27838;43.858;25.974;2022-09-20T04:22:07;101018.59;;;15.58;53.55
42169;BME280;27838;43.858;25.974;2022-09-20T04:24:39;101019.38;;;15.64;53.71
42169;BME280;27838;43.858;25.974;2022-09-20T04:27:22;101021.06;;;15.65;53.46
42169;BME280;27838;43.858;25.974;2022-09-20T04:30:19;101022.75;;;15.71;53.42
42169;BME280;27838;43.858;25.974;2022-09-20T04:42:19;101030.16;;;15.46;54.16
42169;BME280;27838;43.858;25.974;2022-09-20T04:51:13;101034.66;;;15.38;54.11
42169;BME280;27838;43.858;25.974;2022-09-20T04:53:51;101027.72;;;15.32;53.88
42169;BME280;27838;43.858;25.974;2022-09-20T04:59:05;101041.78;;;15.29;54.45
42169;BME280;27838;43.858;25.974;2022-09-20T05:13:15;101039.34;;;15.17;54.69
42169;BME280;27838;43.858;25.974;2022-09-20T05:15:56;101045.47;;;15.16;54.86
42169;BME280;27838;43.858;25.974;2022-09-20T05:21:46;101044.69;;;15.09;55.14
42169;BME280;27838;43.858;25.974;2022-09-20T05:27:08;101066.56;;;15.10;55.38
42169;BME280;27838;43.858;25.974;2022-09-20T05:29:55;101066.56;;;15.10;55.56
42169;BME280;27838;43.858;25.974;2022-09-20T05:32:35;101060.38;;;15.14;55.57
42169;BME280;27838;43.858;25.974;2022-09-20T05:38:09;101060.16;;;15.29;55.43
42169;BME280;27838;43.858;25.974;2022-09-20T05:43:46;101076.72;;;15.35;55.25
42169;BME280;27838;43.858;25.974;2022-09-20T05:46:33;101076.72;;;15.36;55.16
42169;BME280;27838;43.858;25.974;2022-09-20T05:49:18;101075.88;;;15.33;55.26
42169;BME280;27838;43.858;25.974;2022-09-20T06:05:14;101091.03;;;15.76;54.03
42169;BME280;27838;43.858;25.974;2022-09-20T06:08:03;101085.72;;;15.79;54.38
42169;BME280;27838;43.858;25.974;2022-09-20T06:10:44;101088.22;;;15.86;53.89
42169;BME280;27838;43.858;25.974;2022-09-20T06:13:22;101084.47;;;16.03;53.43
42169;BME280;27838;43.858;25.974;2022-09-20T06:16:02;101078.94;;;16.20;52.89
42169;BME280;27838;43.858;25.974;2022-09-20T06:21:35;101096.09;;;16.41;52.52
42169;BME280;27838;43.858;25.974;2022-09-20T06:27:11;101102.72;;;16.60;51.80
42169;BME280;27838;43.858;25.974;2022-09-20T06:29:41;101099.78;;;16.77;51.52
42169;BME280;27838;43.858;25.974;2022-09-20T06:32:10;101104.06;;;16.85;50.90
42169;BME280;27838;43.858;25.974;2022-09-20T06:34:36;101096.06;;;16.88;51.13
42169;BME280;27838;43.858;25.974;2022-09-20T06:40:15;101103.03;;;16.92;50.54
42169;BME280;27838;43.858;25.974;2022-09-20T06:43:03;101102.28;;;16.85;50.23
42169;BME280;27838;43.858;25.974;2022-09-20T06:45:30;101105.94;;;16.76;49.78
42169;BME280;27838;43.858;25.974;2022-09-20T06:47:57;101098.88;;;16.78;49.79
42169;BME280;27838;43.858;25.974;2022-09-20T06:50:26;101105.72;;;16.89;49.68
42169;BME280;27838;43.858;25.974;2022-09-20T06:52:53;101109.22;;;16.89;49.29
42169;BME280;27838;43.858;25.974;2022-09-20T06:55:21;101116.84;;;17.03;48.91
42169;BME280;27838;43.858;25.974;2022-09-20T06:57:53;101117.47;;;17.16;48.72
42169;BME280;27838;43.858;25.974;2022-09-20T07:00:19;101116.41;;;17.25;48.23
42169;BME280;27838;43.858;25.974;2022-09-20T07:02:46;101112.84;;;17.26;47.89
42169;BME280;27838;43.858;25.974;2022-09-20T07:05:17;101119.84;;;17.28;47.67
42169;BME280;27838;43.858;25.974;2022-09-20T07:07:46;101124.00;;;17.39;47.69
42169;BME280;27838;43.858;25.974;2022-09-20T07:10:13;101112.31;;;17.50;47.78
42169;BME280;27838;43.858;25.974;2022-09-20T07:12:40;101103.47;;;17.53;47.57
42169;BME280;27838;43.858;25.974;2022-09-20T07:15:07;101120.69;;;17.68;47.54
42169;BME280;27838;43.858;25.974;2022-09-20T07:17:34;101114.34;;;17.77;47.15
42169;BME280;27838;43.858;25.974;2022-09-20T07:20:00;101117.72;;;17.82;46.67
42169;BME280;27838;43.858;25.974;2022-09-20T07:22:27;101115.03;;;17.86;46.57
42169;BME280;27838;43.858;25.974;2022-09-20T07:24:54;101115.03;;;17.86;46.21
42169;BME280;27838;43.858;25.974;2022-09-20T07:27:20;101130.63;;;17.96;46.02
42169;BME280;27838;43.858;25.974;2022-09-20T07:29:47;101135.91;;;17.96;45.75
42169;BME280;27838;43.858;25.974;2022-09-20T07:32:13;101133.28;;;17.94;45.45
42169;BME280;27838;43.858;25.974;2022-09-20T07:34:41;101123.63;;;17.95;45.54
42169;BME280;27838;43.858;25.974;2022-09-20T07:37:08;101121.72;;;18.00;45.74
42169;BME280;27838;43.858;25.974;2022-09-20T07:39:35;101129.56;;;18.03;45.75
42169;BME280;27838;43.858;25.974;2022-09-20T07:42:02;101135.53;;;18.11;45.10
42169;BME280;27838;43.858;25.974;2022-09-20T07:44:30;101128.38;;;18.16;45.05
42169;BME280;27838;43.858;25.974;2022-09-20T07:46:58;101133.72;;;18.13;45.30
42169;BME280;27838;43.858;25.974;2022-09-20T07:49:26;101128.38;;;18.16;45.04
42169;BME280;27838;43.858;25.974;2022-09-20T07:51:54;101126.41;;;18.24;44.91
42169;BME280;27838;43.858;25.974;2022-09-20T07:54:21;101136.78;;;18.30;44.97
42169;BME280;27838;43.858;25.974;2022-09-20T07:56:47;101120.81;;;18.37;44.13
42169;BME280;27838;43.858;25.974;2022-09-20T07:59:14;101116.34;;;18.39;44.39
42169;BME280;27838;43.858;25.974;2022-09-20T08:01:41;101125.84;;;18.46;44.31
42169;BME280;27838;43.858;25.974;2022-09-20T08:04:09;101117.81;;;18.51;43.92
42169;BME280;27838;43.858;25.974;2022-09-20T08:06:40;101113.41;;;18.51;44.02
42169;BME280;27838;43.858;25.974;2022-09-20T08:09:07;101112.34;;;18.57;43.57
42169;BME280;27838;43.858;25.974;2022-09-20T08:11:35;101107.50;;;18.73;43.52
42169;BME280;27838;43.858;25.974;2022-09-20T08:14:02;101103.78;;;18.80;42.94
42169;BME280;27838;43.858;25.974;2022-09-20T08:16:29;101102.66;;;18.90;42.04
42169;BME280;27838;43.858;25.974;2022-09-20T08:18:58;101106.69;;;19.03;42.01
42169;BME280;27838;43.858;25.974;2022-09-20T08:21:27;101108.22;;;19.11;41.61
42169;BME280;27838;43.858;25.974;2022-09-20T08:23:56;101097.44;;;19.18;41.57
42169;BME280;27838;43.858;25.974;2022-09-20T08:26:24;101098.31;;;19.19;40.99
42169;BME280;27838;43.858;25.974;2022-09-20T08:28:52;101106.97;;;19.24;40.60
42169;BME280;27838;43.858;25.974;2022-09-20T08:31:21;101095.25;;;19.33;40.16
42169;BME280;27838;43.858;25.974;2022-09-20T08:33:50;101087.97;;;19.39;40.38
42169;BME280;27838;43.858;25.974;2022-09-20T08:36:18;101084.44;;;19.40;38.96
42169;BME280;27838;43.858;25.974;2022-09-20T08:38:45;101090.63;;;19.39;39.41
42169;BME280;27838;43.858;25.974;2022-09-20T08:41:22;101087.06;;;19.40;39.33
42169;BME280;27838;43.858;25.974;2022-09-20T08:43:56;101078.91;;;19.48;38.81
42169;BME280;27838;43.858;25.974;2022-09-20T08:46:36;101075.72;;;19.65;38.57
42169;BME280;27838;43.858;25.974;2022-09-20T08:49:05;101074.19;;;19.86;38.11
42169;BME280;27838;43.858;25.974;2022-09-20T08:51:38;101073.78;;;19.98;38.25
42169;BME280;27838;43.858;25.974;2022-09-20T08:54:06;101067.50;;;20.03;37.93
42169;BME280;27838;43.858;25.974;2022-09-20T08:56:35;101063.75;;;20.08;37.68
42169;BME280;27838;43.858;25.974;2022-09-20T08:59:03;101064.28;;;20.18;37.51
42169;BME280;27838;43.858;25.974;2022-09-20T09:01:32;101062.31;;;20.25;36.91
42169;BME280;27838;43.858;25.974;2022-09-20T09:04:11;101058.84;;;20.23;36.68
42169;BME280;27838;43.858;25.974;2022-09-20T09:06:39;101057.94;;;20.24;36.19
42169;BME280;27838;43.858;25.974;2022-09-20T09:09:05;101050.56;;;20.32;36.57
42169;BME280;27838;43.858;25.974;2022-09-20T09:11:32;101053.88;;;20.38;36.03
42169;BME280;27838;43.858;25.974;2022-09-20T09:14:29;101036.09;;;20.42;35.88
42169;BME280;27838;43.858;25.974;2022-09-20T09:17:22;101036.91;;;20.44;34.64
42169;BME280;27838;43.858;25.974;2022-09-20T09:19:53;101043.94;;;20.45;33.88
42169;BME280;27838;43.858;25.974;2022-09-20T09:22:39;101033.75;;;20.58;34.60
42169;BME280;27838;43.858;25.974;2022-09-20T09:30:31;101026.75;;;20.81;33.12
42169;BME280;27838;43.858;25.974;2022-09-20T09:33:26;101034.28;;;20.91;33.45
42169;BME280;27838;43.858;25.974;2022-09-20T09:38:34;101032.84;;;21.06;33.10
42169;BME280;27838;43.858;25.974;2022-09-20T09:41:04;101027.38;;;21.11;32.97
42169;BME280;27838;43.858;25.974;2022-09-20T09:43:36;101025.66;;;21.10;32.86
42169;BME280;27838;43.858;25.974;2022-09-20T09:46:22;101008.84;;;21.11;32.83
42169;BME280;27838;43.858;25.974;2022-09-20T09:49:14;101019.13;;;21.19;32.98
42169;BME280;27838;43.858;25.974;2022-09-20T09:52:14;101020.44;;;21.30;33.17
42169;BME280;27838;43.858;25.974;2022-09-20T09:54:51;101014.69;;;21.19;32.19
42169;BME280;27838;43.858;25.974;2022-09-20T09:57:34;101011.34;;;21.14;32.03
42169;BME280;27838;43.858;25.974;2022-09-20T10:14:26;101004.41;;;21.34;31.83
42169;BME280;27838;43.858;25.974;2022-09-20T10:22:24;101003.56;;;21.55;31.67
42169;BME280;27838;43.858;25.974;2022-09-20T10:25:13;101010.66;;;21.55;31.52
42169;BME280;27838;43.858;25.974;2022-09-20T10:30:25;100997.66;;;21.69;32.10
42169;BME280;27838;43.858;25.974;2022-09-20T10:38:12;100986.94;;;21.72;31.47
42169;BME280;27838;43.858;25.974;2022-09-20T10:44:07;101003.50;;;21.57;31.34
42169;BME280;27838;43.858;25.974;2022-09-20T10:49:41;100989.25;;;21.37;31.39
42169;BME280;27838;43.858;25.974;2022-09-20T10:58:21;100987.00;;;21.26;30.53
42169;BME280;27838;43.858;25.974;2022-09-20T11:01:02;100985.16;;;21.28;29.79
42169;BME280;27838;43.858;25.974;2022-09-20T11:09:18;100975.59;;;21.68;30.43
42169;BME280;27838;43.858;25.974;2022-09-20T11:14:27;100977.19;;;21.93;30.13
42169;BME280;27838;43.858;25.974;2022-09-20T11:19:50;100964.97;;;22.10;29.55
42169;BME280;27838;43.858;25.974;2022-09-20T11:27:52;100962.78;;;21.78;30.12
42169;BME280;27838;43.858;25.974;2022-09-20T11:30:21;100959.16;;;21.81;30.16
42169;BME280;27838;43.858;25.974;2022-09-20T11:33:29;100954.88;;;21.77;30.13
42169;BME280;27838;43.858;25.974;2022-09-20T11:36:01;100953.69;;;21.84;29.78
42169;BME280;27838;43.858;25.974;2022-09-20T11:38:42;100952.97;;;21.80;29.73
42169;BME280;27838;43.858;25.974;2022-09-20T11:41:17;100954.28;;;21.91;29.94
42169;BME280;27838;43.858;25.974;2022-09-20T11:43:46;100939.88;;;21.96;29.06
42169;BME280;27838;43.858;25.974;2022-09-20T11:46:24;100944.47;;;21.93;28.86
42169;BME280;27838;43.858;25.974;2022-09-20T11:49:03;100948.66;;;21.98;28.66
42169;BME280;27838;43.858;25.974;2022-09-20T11:52:03;100945.72;;;22.04;29.01
42169;BME280;27838;43.858;25.974;2022-09-20T11:54:57;100942.94;;;22.08;29.01
42169;BME280;27838;43.858;25.974;2022-09-20T11:57:28;100937.56;;;22.09;29.55
42169;BME280;27838;43.858;25.974;2022-09-20T11:59:59;100941.44;;;22.02;29.25
42169;BME280;27838;43.858;25.974;2022-09-20T12:04:57;100930.53;;;21.87;29.88
42169;BME280;27838;43.858;25.974;2022-09-20T12:10:04;100936.59;;;21.71;30.27
42169;BME280;27838;43.858;25.974;2022-09-20T12:12:47;100938.47;;;21.68;30.28
42169;BME280;27838;43.858;25.974;2022-09-20T12:26:06;100937.38;;;21.52;30.57
42169;BME280;27838;43.858;25.974;2022-09-20T12:28:40;100931.94;;;21.55;30.80
42169;BME280;27838;43.858;25.974;2022-09-20T12:36:24;100918.41;;;21.61;30.78
42169;BME280;27838;43.858;25.974;2022-09-20T12:41:58;100925.84;;;21.74;31.47
42169;BME280;27838;43.858;25.974;2022-09-20T13:00:42;100932.97;;;22.13;31.44
42169;BME280;27838;43.858;25.974;2022-09-20T13:03:23;100926.94;;;22.09;30.74
42169;BME280;27838;43.858;25.974;2022-09-20T13:11:38;100918.53;;;21.99;31.44
42169;BME280;27838;43.858;25.974;2022-09-20T13:14:09;100919.31;;;22.01;31.67
42169;BME280;27838;43.858;25.974;2022-09-20T13:19:27;100921.78;;;21.85;31.65
42169;BME280;27838;43.858;25.974;2022-09-20T13:22:10;100924.72;;;21.79;32.14
42169;BME280;27838;43.858;25.974;2022-09-20T13:24:41;100924.06;;;21.74;32.24
42169;BME280;27838;43.858;25.974;2022-09-20T13:27:38;100923.28;;;21.72;32.23
42169;BME280;27838;43.858;25.974;2022-09-20T13:30:23;100921.72;;;21.66;32.47
42169;BME280;27838;43.858;25.974;2022-09-20T13:32:51;100920.88;;;21.66;32.56
42169;BME280;27838;43.858;25.974;2022-09-20T13:35:21;100926.25;;;21.64;32.74
42169;BME280;27838;43.858;25.974;2022-09-20T13:38:04;100924.53;;;21.63;33.08
42169;BME280;27838;43.858;25.974;2022-09-20T13:40:42;100925.63;;;21.58;32.91
42169;BME280;27838;43.858;25.974;2022-09-20T13:43:30;100929.34;;;21.54;32.59
42169;BME280;27838;43.858;25.974;2022-09-20T13:46:04;100930.16;;;21.56;32.55
42169;BME280;27838;43.858;25.974;2022-09-20T13:48:32;100923.03;;;21.56;32.21
42169;BME280;27838;43.858;25.974;2022-09-20T13:50:58;100922.97;;;21.58;32.20
42169;BME280;27838;43.858;25.974;2022-09-20T13:53:27;100924.66;;;21.60;31.97
42169;BME280;27838;43.858;25.974;2022-09-20T13:55:55;100921.88;;;21.63;32.41
42169;BME280;27838;43.858;25.974;2022-09-20T13:58:27;100929.84;;;21.63;32.57
42169;BME280;27838;43.858;25.974;2022-09-20T14:01:02;100921.88;;;21.63;32.59
42169;BME280;27838;43.858;25.974;2022-09-20T14:03:32;100922.06;;;21.59;32.78
42169;BME280;27838;43.858;25.974;2022-09-20T14:06:02;100927.31;;;21.60;32.88
42169;BME280;27838;43.858;25.974;2022-09-20T14:08:43;100924.78;;;21.57;33.18
42169;BME280;27838;43.858;25.974;2022-09-20T14:13:42;100928.28;;;21.58;33.42
42169;BME280;27838;43.858;25.974;2022-09-20T14:16:10;100932.72;;;21.57;33.48
42169;BME280;27838;43.858;25.974;2022-09-20T14:18:41;100929.22;;;21.57;33.47
42169;BME280;27838;43.858;25.974;2022-09-20T14:21:09;100930.09;;;21.57;33.42
42169;BME280;27838;43.858;25.974;2022-09-20T14:26:42;100926.63;;;21.55;33.56
42169;BME280;27838;43.858;25.974;2022-09-20T14:35:19;100918.22;;;21.44;33.45
42169;BME280;27838;43.858;25.974;2022-09-20T14:37:52;100928.69;;;21.48;33.19
42169;BME280;27838;43.858;25.974;2022-09-20T14:40:28;100927.72;;;21.51;33.37
42169;BME280;27838;43.858;25.974;2022-09-20T14:42:57;100930.38;;;21.51;33.52
42169;BME280;27838;43.858;25.974;2022-09-20T14:45:34;100932.91;;;21.53;33.32
42169;BME280;27838;43.858;25.974;2022-09-20T14:50:36;100933.81;;;21.53;33.02
42169;BME280;27838;43.858;25.974;2022-09-20T14:53:05;100933.81;;;21.53;33.16
42169;BME280;27838;43.858;25.974;2022-09-20T14:56:08;100928.63;;;21.50;33.08
42169;BME280;27838;43.858;25.974;2022-09-20T15:01:23;100931.75;;;21.38;33.28
42169;BME280;27838;43.858;25.974;2022-09-20T15:03:51;100936.38;;;21.33;33.65
42169;BME280;27838;43.858;25.974;2022-09-20T15:06:18;100931.47;;;21.23;33.43
42169;BME280;27838;43.858;25.974;2022-09-20T15:08:45;100927.16;;;21.21;34.07
42169;BME280;27838;43.858;25.974;2022-09-20T15:11:16;100931.31;;;21.26;34.10
42169;BME280;27838;43.858;25.974;2022-09-20T15:13:43;100934.06;;;21.25;34.10
42169;BME280;27838;43.858;25.974;2022-09-20T15:16:12;100929.41;;;21.30;34.34
42169;BME280;27838;43.858;25.974;2022-09-20T15:18:41;100936.38;;;21.33;34.57
42169;BME280;27838;43.858;25.974;2022-09-20T15:21:09;100923.13;;;21.33;34.29
42169;BME280;27838;43.858;25.974;2022-09-20T15:23:36;100926.47;;;21.38;34.65
42169;BME280;27838;43.858;25.974;2022-09-20T15:26:03;100927.25;;;21.40;34.49
42169;BME280;27838;43.858;25.974;2022-09-20T15:28:32;100927.19;;;21.41;34.36
42169;BME280;27838;43.858;25.974;2022-09-20T15:30:59;100920.22;;;21.39;34.61
42169;BME280;27838;43.858;25.974;2022-09-20T15:33:29;100926.47;;;21.38;34.88
42169;BME280;27838;43.858;25.974;2022-09-20T15:35:56;100932.56;;;21.40;34.90
42169;BME280;27838;43.858;25.974;2022-09-20T15:38:23;100932.94;;;21.30;34.81
42169;BME280;27838;43.858;25.974;2022-09-20T15:40:51;100941.63;;;21.12;35.11
42169;BME280;27838;43.858;25.974;2022-09-20T15:43:21;100924.09;;;20.87;35.63
42169;BME280;27838;43.858;25.974;2022-09-20T15:45:55;100934.00;;;20.82;35.77
42169;BME280;27838;43.858;25.974;2022-09-20T15:48:25;100948.88;;;20.86;36.15
42169;BME280;27838;43.858;25.974;2022-09-20T15:51:00;100947.88;;;20.89;36.19
42169;BME280;27838;43.858;25.974;2022-09-20T15:53:35;100947.75;;;20.92;36.34
42169;BME280;27838;43.858;25.974;2022-09-20T15:56:26;100957.28;;;20.96;36.79
42169;BME280;27838;43.858;25.974;2022-09-20T15:58:56;100962.66;;;20.94;37.05
42169;BME280;27838;43.858;25.974;2022-09-20T16:01:32;100955.66;;;20.93;37.27
42169;BME280;27838;43.858;25.974;2022-09-20T16:04:14;100953.16;;;20.89;37.48
42169;BME280;27838;43.858;25.974;2022-09-20T16:06:44;100956.50;;;20.94;37.56
42169;BME280;27838;43.858;25.974;2022-09-20T16:09:11;100954.91;;;20.90;37.74
42169;BME280;27838;43.858;25.974;2022-09-20T16:11:38;100958.63;;;20.84;37.74
42169;BME280;27838;43.858;25.974;2022-09-20T16:14:05;100957.94;;;20.79;37.69
42169;BME280;27838;43.858;25.974;2022-09-20T16:16:33;100965.16;;;20.75;37.93
42169;BME280;27838;43.858;25.974;2022-09-20T16:19:00;100966.16;;;20.73;38.09
42169;BME280;27838;43.858;25.974;2022-09-20T16:21:49;100958.31;;;20.70;38.05
42169;BME280;27838;43.858;25.974;2022-09-20T16:24:18;100966.88;;;20.77;37.62
42169;BME280;27838;43.858;25.974;2022-09-20T16:26:44;100973.09;;;20.75;37.44
42169;BME280;27838;43.858;25.974;2022-09-20T16:29:12;100972.50;;;20.69;37.42
42169;BME280;27838;43.858;25.974;2022-09-20T16:31:39;100975.19;;;20.67;37.19
42169;BME280;27838;43.858;25.974;2022-09-20T16:36:43;100975.38;;;20.61;36.60
42169;BME280;27838;43.858;25.974;2022-09-20T16:39:10;100974.53;;;20.61;36.82
42169;BME280;27838;43.858;25.974;2022-09-20T16:41:37;100981.63;;;20.60;36.75
42169;BME280;27838;43.858;25.974;2022-09-20T16:44:05;100982.47;;;20.61;36.74
42169;BME280;27838;43.858;25.974;2022-09-20T16:46:32;100979.81;;;20.61;36.74
42169;BME280;27838;43.858;25.974;2022-09-20T16:49:03;100985.09;;;20.62;36.87
42169;BME280;27838;43.858;25.974;2022-09-20T16:51:32;100983.31;;;20.63;36.75
42169;BME280;27838;43.858;25.974;2022-09-20T16:54:10;100992.84;;;20.67;36.71
42169;BME280;27838;43.858;25.974;2022-09-20T16:56:42;100992.75;;;20.70;36.91
42169;BME280;27838;43.858;25.974;2022-09-20T16:59:10;100994.53;;;20.69;36.98
42169;BME280;27838;43.858;25.974;2022-09-20T17:01:37;100989.13;;;20.72;36.96
42169;BME280;27838;43.858;25.974;2022-09-20T17:04:05;101000.56;;;20.73;36.92
42169;BME280;27838;43.858;25.974;2022-09-20T17:06:34;100997.13;;;20.71;37.11
42169;BME280;27838;43.858;25.974;2022-09-20T17:09:02;101002.75;;;20.62;37.21
42169;BME280;27838;43.858;25.974;2022-09-20T17:11:32;101000.94;;;20.64;37.43
42169;BME280;27838;43.858;25.974;2022-09-20T17:14:00;101009.78;;;20.63;37.42
42169;BME280;27838;43.858;25.974;2022-09-20T17:16:29;101002.84;;;20.59;37.79
42169;BME280;27838;43.858;25.974;2022-09-20T17:18:58;101011.75;;;20.56;37.81
42169;BME280;27838;43.858;25.974;2022-09-20T17:21:26;101006.66;;;20.51;37.86
42169;BME280;27838;43.858;25.974;2022-09-20T17:23:56;101003.94;;;20.53;38.03
42169;BME280;27838;43.858;25.974;2022-09-20T17:26:28;101011.00;;;20.52;38.12
42169;BME280;27838;43.858;25.974;2022-09-20T17:28:58;101012.88;;;20.50;38.26
42169;BME280;27838;43.858;25.974;2022-09-20T17:31:31;101006.91;;;20.44;38.47
42169;BME280;27838;43.858;25.974;2022-09-20T17:33:59;101021.75;;;20.48;38.17
42169;BME280;27838;43.858;25.974;2022-09-20T17:36:31;101018.31;;;20.46;38.08
42169;BME280;27838;43.858;25.974;2022-09-20T17:38:59;101017.47;;;20.45;37.66
42169;BME280;27838;43.858;25.974;2022-09-20T17:41:27;101018.44;;;20.43;37.53
42169;BME280;27838;43.858;25.974;2022-09-20T17:43:58;101015.81;;;20.43;37.17
42169;BME280;27838;43.858;25.974;2022-09-20T17:46:30;101027.31;;;20.42;36.77
42169;BME280;27838;43.858;25.974;2022-09-20T17:48:58;101023.84;;;20.40;36.81